Time;durP1;ratioP1;P1;durP2;ratioP2;P2;SDS_P1;SDS_P2;PMS_P1;PMS_P2;Temp;Humidity;BMP_temperature;BMP_pressure;BME280_temperature;BME280_humidity;BME280_pressure;Samples;Min_cycle;Max_cycle;Signal;HPM_P1;HPM_P2
2023/07/13 00:02:23;;;;;;;4.13;2.03;;;19.80;6.50;;;;;;4993096;28;20467;-69
2023/07/13 00:04:49;;;;;;;4.50;1.60;;;19.70;7.40;;;;;;4993633;28;20420;-69
2023/07/13 00:07:14;;;;;;;2.47;1.50;;;19.70;7.30;;;;;;4993459;28;20924;-69
2023/07/13 00:09:40;;;;;;;2.43;1.33;;;19.60;8.00;;;;;;4993524;28;20295;-68
2023/07/13 00:12:27;;;;;;;4.00;2.10;;;19.60;7.30;;;;;;4992891;28;20587;-68
2023/07/13 00:14:52;;;;;;;2.40;1.57;;;19.50;7.60;;;;;;4993293;28;20424;-69
2023/07/13 00:17:18;;;;;;;2.30;1.30;;;19.40;8.70;;;;;;4993571;28;20415;-69
2023/07/13 00:19:43;;;;;;;6.10;2.03;;;19.40;8.60;;;;;;4993371;28;20177;-69
2023/07/13 00:22:09;;;;;;;2.20;1.40;;;19.30;9.70;;;;;;4992786;28;20216;-69
2023/07/13 00:24:35;;;;;;;2.40;1.50;;;19.30;9.50;;;;;;4993272;28;20575;-69
2023/07/13 00:27:01;;;;;;;2.93;1.73;;;19.20;10.60;;;;;;4991816;28;20653;-69
2023/07/13 00:29:26;;;;;;;2.07;1.50;;;19.20;10.00;;;;;;4993146;28;20510;-69
2023/07/13 00:31:52;;;;;;;2.30;1.73;;;19.10;11.50;;;;;;4992967;28;20593;-69
2023/07/13 00:34:17;;;;;;;3.70;1.93;;;19.00;10.70;;;;;;4993165;28;20662;-69
2023/07/13 00:36:43;;;;;;;3.00;1.60;;;19.00;10.10;;;;;;4993205;28;20593;-69
2023/07/13 00:39:09;;;;;;;2.57;1.37;;;19.00;11.10;;;;;;4993049;28;20674;-69
2023/07/13 00:41:36;;;;;;;2.30;1.53;;;18.90;9.40;;;;;;4992654;28;20722;-69
2023/07/13 00:44:02;;;;;;;4.70;1.80;;;18.90;9.60;;;;;;4991566;28;20188;-69
2023/07/13 00:46:31;;;;;;;2.17;1.60;;;19.00;9.60;;;;;;4992954;28;20408;-69
2023/07/13 00:49:01;;;;;;;3.33;1.83;;;19.00;9.60;;;;;;4991511;28;20179;-69
2023/07/13 00:51:32;;;;;;;3.10;1.27;;;19.10;9.90;;;;;;4992735;28;20436;-69
2023/07/13 00:54:01;;;;;;;4.50;2.00;;;19.00;9.50;;;;;;4993012;28;20415;-69
2023/07/13 00:56:28;;;;;;;3.13;1.60;;;19.00;9.30;;;;;;4992121;28;20426;-69
2023/07/13 00:58:54;;;;;;;2.90;1.60;;;19.10;9.90;;;;;;4991430;28;20427;-69
2023/07/13 01:01:20;;;;;;;2.17;1.40;;;19.10;10.20;;;;;;4991224;28;20541;-69
2023/07/13 01:03:46;;;;;;;3.23;1.73;;;19.10;8.60;;;;;;4992594;28;20846;-69
2023/07/13 01:06:12;;;;;;;3.03;1.40;;;19.20;8.70;;;;;;4992685;28;20422;-69
2023/07/13 01:08:39;;;;;;;1.93;1.43;;;19.20;8.20;;;;;;4992748;28;20283;-69
2023/07/13 01:11:08;;;;;;;1.90;1.10;;;19.30;8.60;;;;;;4992213;28;20419;-68
2023/07/13 01:13:33;;;;;;;5.40;1.90;;;19.40;7.60;;;;;;4992573;28;20761;-69
2023/07/13 01:16:05;;;;;;;3.27;1.93;;;19.40;7.20;;;;;;4992490;28;20423;-68
2023/07/13 01:18:31;;;;;;;2.30;1.10;;;19.40;7.10;;;;;;4991245;28;20334;-68
2023/07/13 01:21:00;;;;;;;4.30;1.60;;;19.50;7.20;;;;;;4992256;28;20439;-69
2023/07/13 01:23:27;;;;;;;2.80;1.80;;;19.50;6.20;;;;;;4992082;28;20425;-68
2023/07/13 01:25:55;;;;;;;3.33;1.93;;;19.40;6.30;;;;;;4992338;28;20423;-68
2023/07/13 01:28:21;;;;;;;3.90;1.70;;;19.40;5.20;;;;;;4991019;28;20470;-68
2023/07/13 01:30:47;;;;;;;2.03;1.43;;;19.30;5.30;;;;;;4992088;28;20420;-68
2023/07/13 01:33:16;;;;;;;2.63;1.80;;;19.30;5.20;;;;;;4991932;28;20519;-68
2023/07/13 01:35:42;;;;;;;3.73;2.23;;;19.30;5.30;;;;;;4992350;28;20788;-69
2023/07/13 01:38:09;;;;;;;2.90;1.40;;;19.30;7.10;;;;;;4992118;28;20762;-69
2023/07/13 01:40:36;;;;;;;3.00;1.87;;;19.30;6.00;;;;;;4990804;28;20426;-69
2023/07/13 01:43:02;;;;;;;2.87;1.80;;;19.40;5.90;;;;;;4991918;28;20459;-69
2023/07/13 01:45:28;;;;;;;3.00;1.77;;;19.40;6.30;;;;;;4992137;28;20411;-69
2023/07/13 01:47:54;;;;;;;2.60;1.60;;;19.40;5.10;;;;;;4990735;28;20491;-69
2023/07/13 01:50:19;;;;;;;2.40;1.60;;;19.40;3.80;;;;;;4992147;28;20219;-68
2023/07/13 01:52:45;;;;;;;8.10;1.97;;;19.50;4.70;;;;;;5001932;28;20207;-69
2023/07/13 01:55:11;;;;;;;5.10;2.00;;;19.50;4.80;;;;;;5011475;28;20258;-69
2023/07/13 01:57:36;;;;;;;3.03;2.10;;;19.50;5.20;;;;;;5010526;28;20464;-67
2023/07/13 02:00:07;;;;;;;2.20;1.80;;;19.50;4.80;;;;;;5011633;28;20186;-68
2023/07/13 02:02:33;;;;;;;2.23;1.77;;;19.50;4.90;;;;;;5011163;28;20711;-67
2023/07/13 02:04:58;;;;;;;4.53;1.77;;;19.50;5.40;;;;;;5010381;28;20411;-69
2023/07/13 02:07:24;;;;;;;3.13;1.93;;;19.40;7.20;;;;;;5011471;28;20418;-68
2023/07/13 02:09:50;;;;;;;4.30;1.57;;;19.30;8.10;;;;;;5014957;28;20179;-68
2023/07/13 02:12:15;;;;;;;5.70;1.70;;;19.20;8.60;;;;;;5014247;28;20219;-68
2023/07/13 02:14:41;;;;;;;2.53;1.83;;;19.00;9.10;;;;;;5015527;28;20200;-68
2023/07/13 02:17:06;;;;;;;2.50;1.90;;;18.90;10.30;;;;;;5015469;28;20191;-68
2023/07/13 02:19:32;;;;;;;2.50;1.60;;;18.90;11.00;;;;;;5015250;28;20190;-68
2023/07/13 02:21:58;;;;;;;2.90;1.57;;;18.80;11.10;;;;;;5014974;28;20215;-67
2023/07/13 02:24:24;;;;;;;3.03;1.30;;;18.80;11.00;;;;;;5015261;28;20211;-68
2023/07/13 02:26:49;;;;;;;4.50;1.30;;;18.70;11.60;;;;;;5015344;28;20172;-68
2023/07/13 02:29:15;;;;;;;2.10;1.50;;;18.70;11.60;;;;;;5015149;28;20253;-68
2023/07/13 02:31:40;;;;;;;2.00;1.30;;;18.60;12.10;;;;;;5014796;28;20214;-67
2023/07/13 02:34:06;;;;;;;4.97;2.00;;;18.60;12.70;;;;;;5015182;28;20188;-68
2023/07/13 02:36:32;;;;;;;2.87;1.97;;;18.50;13.40;;;;;;5014973;28;20270;-68
2023/07/13 02:39:02;;;;;;;3.27;1.67;;;18.40;14.20;;;;;;5014899;28;20294;-67
2023/07/13 02:41:28;;;;;;;3.37;1.97;;;18.30;13.50;;;;;;5014683;28;20207;-67
2023/07/13 02:44:02;;;;;;;2.20;1.60;;;18.30;13.50;;;;;;5013456;28;20422;-69
2023/07/13 02:46:29;;;;;;;3.07;1.90;;;18.20;14.00;;;;;;5014902;28;20568;-68
2023/07/13 02:48:54;;;;;;;1.97;1.43;;;18.20;14.50;;;;;;5014785;28;20569;-68
2023/07/13 02:51:20;;;;;;;2.90;1.60;;;18.10;15.20;;;;;;5013300;28;20998;-68
2023/07/13 02:53:45;;;;;;;2.83;2.00;;;17.90;15.10;;;;;;5014381;28;20172;-69
2023/07/13 02:56:11;;;;;;;4.27;1.83;;;17.90;15.80;;;;;;5014681;28;20183;-67
2023/07/13 02:58:38;;;;;;;4.17;1.77;;;17.70;16.70;;;;;;5014719;28;20548;-68
2023/07/13 03:01:07;;;;;;;3.70;2.27;;;17.60;17.10;;;;;;5014831;28;20278;-68
2023/07/13 03:03:33;;;;;;;4.97;1.93;;;17.50;18.30;;;;;;5014367;28;20411;-67
2023/07/13 03:06:00;;;;;;;4.30;1.83;;;17.40;18.90;;;;;;5014978;28;20506;-67
2023/07/13 03:08:26;;;;;;;4.13;2.17;;;17.30;19.10;;;;;;5014702;28;20263;-67
2023/07/13 03:11:10;;;;;;;3.93;1.57;;;17.20;19.20;;;;;;5014273;28;20502;-67
2023/07/13 03:13:37;;;;;;;3.00;1.83;;;17.20;19.60;;;;;;5014179;28;20522;-68
2023/07/13 03:16:03;;;;;;;2.70;1.93;;;17.20;19.20;;;;;;5014269;28;20486;-67
2023/07/13 03:18:29;;;;;;;3.40;1.80;;;17.20;19.00;;;;;;5014212;28;20453;-67
2023/07/13 03:20:54;;;;;;;2.97;1.50;;;17.10;19.30;;;;;;5014064;28;20598;-67
2023/07/13 03:23:21;;;;;;;3.57;1.77;;;17.10;19.70;;;;;;5014001;28;20751;-67
2023/07/13 03:25:47;;;;;;;2.50;1.40;;;17.10;19.50;;;;;;5014299;28;20722;-68
2023/07/13 03:28:13;;;;;;;2.83;1.57;;;17.00;19.90;;;;;;5013949;28;20505;-67
2023/07/13 03:30:38;;;;;;;2.07;1.20;;;16.90;20.00;;;;;;5013869;28;20177;-67
2023/07/13 03:33:04;;;;;;;2.50;1.90;;;16.90;19.30;;;;;;5013540;28;20433;-67
2023/07/13 03:35:30;;;;;;;2.20;1.60;;;16.90;19.50;;;;;;5013820;28;20227;-67
2023/07/13 03:37:56;;;;;;;3.13;1.97;;;16.90;20.40;;;;;;5013596;28;20187;-67
2023/07/13 03:40:22;;;;;;;4.80;2.10;;;16.80;20.00;;;;;;5013732;28;20573;-66
2023/07/13 03:42:47;;;;;;;2.40;1.30;;;16.80;19.90;;;;;;5013233;28;20492;-69
2023/07/13 03:45:13;;;;;;;3.17;1.37;;;16.80;19.70;;;;;;5013612;28;20252;-68
2023/07/13 03:47:38;;;;;;;3.43;1.70;;;16.80;19.60;;;;;;5013530;28;20476;-68
2023/07/13 03:50:05;;;;;;;2.23;1.43;;;16.80;19.40;;;;;;5013754;28;20274;-70
2023/07/13 03:52:30;;;;;;;4.00;1.83;;;16.80;19.80;;;;;;5000973;28;20207;-68
2023/07/13 03:54:56;;;;;;;3.93;1.50;;;16.80;20.10;;;;;;4994014;28;20769;-69
2023/07/13 03:57:22;;;;;;;2.90;1.30;;;16.70;20.10;;;;;;4994010;28;20848;-70
2023/07/13 03:59:48;;;;;;;3.00;1.77;;;16.80;20.40;;;;;;4993921;28;20212;-69
2023/07/13 04:02:14;;;;;;;3.00;1.93;;;16.70;20.80;;;;;;4993428;28;20575;-69
2023/07/13 04:04:40;;;;;;;3.37;1.93;;;16.70;20.90;;;;;;4993961;28;20181;-69
2023/07/13 04:07:08;;;;;;;4.33;2.17;;;16.70;20.20;;;;;;4994047;28;20183;-70
2023/07/13 04:09:34;;;;;;;5.37;1.60;;;16.70;20.00;;;;;;4993640;28;20412;-69
2023/07/13 04:12:00;;;;;;;4.40;2.30;;;16.70;19.90;;;;;;4993260;28;20500;-69
2023/07/13 04:14:25;;;;;;;3.60;1.50;;;16.70;20.10;;;;;;4993485;28;20447;-68
2023/07/13 04:16:51;;;;;;;2.63;1.03;;;16.80;19.90;;;;;;4993516;28;20586;-68
2023/07/13 04:19:17;;;;;;;3.07;2.17;;;16.90;19.90;;;;;;4993362;28;20187;-69
2023/07/13 04:21:42;;;;;;;4.43;1.43;;;16.90;19.20;;;;;;4993355;28;20212;-69
2023/07/13 04:24:08;;;;;;;5.37;1.97;;;17.10;18.90;;;;;;4993697;28;20511;-68
2023/07/13 04:26:35;;;;;;;4.00;1.70;;;17.10;18.90;;;;;;4993503;28;20663;-69
2023/07/13 04:29:03;;;;;;;3.47;2.30;;;17.10;18.50;;;;;;4993416;28;20556;-68
2023/07/13 04:31:29;;;;;;;2.60;1.53;;;17.10;18.30;;;;;;4992458;28;20494;-69
2023/07/13 04:33:54;;;;;;;3.63;2.07;;;17.20;18.00;;;;;;4993302;28;20494;-70
2023/07/13 04:36:20;;;;;;;4.17;1.43;;;17.10;18.90;;;;;;4992008;28;20187;-70
2023/07/13 04:38:46;;;;;;;3.87;2.30;;;17.20;17.70;;;;;;4993198;28;20180;-71
2023/07/13 04:41:13;;;;;;;3.57;1.70;;;17.20;17.50;;;;;;4992993;28;20177;-70
2023/07/13 04:43:39;;;;;;;3.47;1.40;;;17.20;17.30;;;;;;4991495;28;20735;-71
2023/07/13 04:46:07;;;;;;;3.00;1.70;;;17.30;16.20;;;;;;4991910;28;20420;-71
2023/07/13 04:48:33;;;;;;;2.80;1.80;;;17.20;16.70;;;;;;4993285;28;20280;-71
2023/07/13 04:50:59;;;;;;;3.50;1.93;;;17.30;16.30;;;;;;4992749;28;20898;-70
2023/07/13 04:53:25;;;;;;;3.10;1.70;;;17.40;16.70;;;;;;4992653;28;20515;-71
2023/07/13 04:55:51;;;;;;;3.20;1.73;;;17.40;15.20;;;;;;4992778;28;20832;-70
2023/07/13 04:58:17;;;;;;;4.97;2.10;;;17.50;14.80;;;;;;4992678;28;20426;-70
2023/07/13 05:00:43;;;;;;;3.43;1.93;;;17.50;14.80;;;;;;4992789;28;20240;-70
2023/07/13 05:03:08;;;;;;;2.20;1.63;;;17.60;14.20;;;;;;4991915;28;20208;-69
2023/07/13 05:05:34;;;;;;;3.10;2.30;;;17.60;14.20;;;;;;4992425;28;20910;-70
2023/07/13 05:08:00;;;;;;;4.13;1.70;;;17.70;14.90;;;;;;4992510;28;20222;-70
2023/07/13 05:10:25;;;;;;;5.47;2.60;;;17.80;14.40;;;;;;4992491;28;20181;-70
2023/07/13 05:12:51;;;;;;;5.63;2.13;;;17.80;13.60;;;;;;4992065;28;20825;-70
2023/07/13 05:15:20;;;;;;;5.80;2.50;;;17.80;14.00;;;;;;4991248;28;20188;-69
2023/07/13 05:17:49;;;;;;;5.50;2.40;;;17.90;14.20;;;;;;4992344;28;20180;-70
2023/07/13 05:20:15;;;;;;;7.93;2.90;;;18.10;13.60;;;;;;4991029;28;20515;-70
2023/07/13 05:22:42;;;;;;;3.90;2.63;;;18.30;13.40;;;;;;4992053;28;20474;-70
2023/07/13 05:25:08;;;;;;;2.27;1.53;;;18.30;12.10;;;;;;4992175;28;20511;-70
2023/07/13 05:27:34;;;;;;;6.90;2.30;;;18.30;11.70;;;;;;4992082;28;20519;-70
2023/07/13 05:30:01;;;;;;;2.57;1.80;;;18.40;11.30;;;;;;4992036;28;20177;-70
2023/07/13 05:32:27;;;;;;;5.00;2.33;;;18.40;11.40;;;;;;4991821;28;20471;-69
2023/07/13 05:34:52;;;;;;;4.30;2.30;;;18.50;11.90;;;;;;4991920;28;20420;-70
2023/07/13 05:37:18;;;;;;;5.17;2.00;;;18.70;11.40;;;;;;4991895;28;20177;-69
2023/07/13 05:39:44;;;;;;;11.00;2.90;;;19.00;11.00;;;;;;4991879;28;20188;-69
2023/07/13 05:42:09;;;;;;;4.47;2.20;;;19.10;9.60;;;;;;4989865;28;20485;-69
2023/07/13 05:44:35;;;;;;;3.60;2.10;;;19.30;8.10;;;;;;4991851;28;20180;-69
2023/07/13 05:47:01;;;;;;;6.37;3.10;;;20.90;5.90;;;;;;4991947;28;20567;-69
2023/07/13 05:49:27;;;;;;;4.80;3.33;;;21.20;3.10;;;;;;4991893;28;20180;-69
2023/07/13 05:51:52;;;;;;;3.93;2.20;;;21.00;2.70;;;;;;4991803;28;20200;-69
2023/07/13 05:54:18;;;;;;;3.90;1.90;;;20.80;3.20;;;;;;4991979;28;20215;-69
2023/07/13 05:56:44;;;;;;;4.30;2.47;;;20.80;3.00;;;;;;4991966;28;20219;-70
2023/07/13 05:59:09;;;;;;;4.27;2.83;;;22.30;1.70;;;;;;4991868;28;20188;-69
2023/07/13 06:01:35;;;;;;;3.20;2.93;;;24.70;1.00;;;;;;4991584;28;20216;-69
2023/07/13 06:04:01;;;;;;;5.20;3.57;;;27.20;1.00;;;;;;4991941;28;20177;-70
2023/07/13 06:06:27;;;;;;;4.03;3.70;;;28.60;1.00;;;;;;4991922;28;20172;-69
2023/07/13 06:08:52;;;;;;;3.93;3.63;;;28.80;1.00;;;;;;4991864;28;20255;-70
2023/07/13 06:11:23;;;;;;;4.43;4.13;;;29.20;1.00;;;;;;4991547;28;20212;-69
2023/07/13 06:13:49;;;;;;;4.17;3.87;;;29.50;1.00;;;;;;4991761;28;20185;-71
2023/07/13 06:16:16;;;;;;;5.30;3.97;;;28.40;1.00;;;;;;4991921;28;20455;-70
2023/07/13 06:18:42;;;;;;;4.43;4.03;;;28.60;1.00;;;;;;4991846;28;20411;-70
2023/07/13 06:21:14;;;;;;;4.30;4.00;;;28.50;1.00;;;;;;4991877;28;20435;-70
2023/07/13 06:23:40;;;;;;;4.03;3.73;;;29.90;1.00;;;;;;4991662;28;20431;-70
2023/07/13 06:26:07;;;;;;;4.43;3.90;;;30.00;1.00;;;;;;4991693;28;20416;-69
2023/07/13 06:28:33;;;;;;;5.37;4.90;;;31.40;1.00;;;;;;4991563;28;20176;-70
2023/07/13 06:30:59;;;;;;;4.90;4.60;;;32.90;1.00;;;;;;4991353;28;20514;-70
2023/07/13 06:33:25;;;;;;;4.73;4.43;;;34.80;1.00;;;;;;4989844;28;20455;-71
2023/07/13 06:35:51;;;;;;;4.93;4.40;;;34.40;1.00;;;;;;4991580;28;20454;-71
2023/07/13 06:38:17;;;;;;;3.97;3.77;;;36.10;1.00;;;;;;4991467;28;20949;-70
2023/07/13 06:40:43;;;;;;;4.87;4.47;;;37.10;1.00;;;;;;4991458;28;20459;-70
2023/07/13 06:43:08;;;;;;;4.73;4.33;;;37.60;1.00;;;;;;4991277;28;20507;-71
2023/07/13 06:45:45;;;;;;;4.83;4.40;;;37.10;1.00;;;;;;4990394;28;20239;-71
2023/07/13 06:48:11;;;;;;;4.30;4.00;;;36.70;1.00;;;;;;4990262;28;20184;-70
2023/07/13 06:50:37;;;;;;;4.73;4.33;;;37.40;1.00;;;;;;4991387;28;20416;-71
2023/07/13 06:53:02;;;;;;;5.07;4.77;;;38.10;1.00;;;;;;4990051;28;20451;-70
2023/07/13 06:55:28;;;;;;;4.60;4.30;;;38.20;1.00;;;;;;4994067;28;20181;-70
2023/07/13 06:57:54;;;;;;;4.30;4.10;;;37.50;1.00;;;;;;4994700;28;20185;-70
2023/07/13 07:00:19;;;;;;;4.17;3.87;;;37.20;1.00;;;;;;4995178;28;20273;-70
2023/07/13 07:02:45;;;;;;;4.70;3.60;;;36.90;1.00;;;;;;4990716;28;20244;-70
2023/07/13 07:05:10;;;;;;;4.27;4.00;;;37.60;1.00;;;;;;4979230;28;20220;-70
2023/07/13 07:07:36;;;;;;;4.77;4.03;;;38.80;1.00;;;;;;4975728;28;20177;-70
2023/07/13 07:10:02;;;;;;;4.07;3.73;;;37.60;1.00;;;;;;4979551;28;20710;-70
2023/07/13 07:12:28;;;;;;;4.37;3.97;;;37.40;1.00;;;;;;4978242;28;20239;-70
2023/07/13 07:14:54;;;;;;;5.67;4.40;;;37.70;1.00;;;;;;4995467;28;20435;-71
2023/07/13 07:17:20;;;;;;;4.03;3.80;;;38.10;1.00;;;;;;4994773;28;20185;-71
2023/07/13 07:19:45;;;;;;;4.40;4.10;;;38.90;1.00;;;;;;5010919;28;20211;-71
2023/07/13 07:22:11;;;;;;;4.10;3.70;;;38.10;1.00;;;;;;4982531;28;20579;-70
2023/07/13 07:24:37;;;;;;;4.03;3.73;;;36.70;1.00;;;;;;4975953;28;20185;-71
2023/07/13 07:27:03;;;;;;;4.60;3.97;;;35.90;1.00;;;;;;4976046;28;20189;-71
2023/07/13 07:29:28;;;;;;;4.23;3.93;;;37.40;1.00;;;;;;4974160;28;20643;-69
2023/07/13 07:31:54;;;;;;;3.93;3.50;;;39.20;1.00;;;;;;4988846;28;20470;-70
2023/07/13 07:34:20;;;;;;;4.13;3.80;;;38.70;1.00;;;;;;4993792;28;20219;-68
2023/07/13 07:36:45;;;;;;;6.40;3.47;;;37.90;1.00;;;;;;4976478;28;20239;-68
2023/07/13 07:39:11;;;;;;;4.03;3.63;;;37.60;1.00;;;;;;4994367;28;20180;-70
2023/07/13 07:41:37;;;;;;;4.17;3.87;;;38.20;1.00;;;;;;4994078;28;20220;-68
2023/07/13 07:44:04;;;;;;;4.03;3.73;;;38.60;1.00;;;;;;4992174;28;20435;-69
2023/07/13 07:46:29;;;;;;;3.90;3.60;;;37.80;1.00;;;;;;4993989;28;20542;-69
2023/07/13 07:48:56;;;;;;;3.93;3.63;;;36.60;1.00;;;;;;4993592;28;20569;-68
2023/07/13 07:51:21;;;;;;;3.97;3.70;;;36.70;1.00;;;;;;4992405;28;20806;-68
2023/07/13 07:53:47;;;;;;;3.33;3.00;;;37.10;1.00;;;;;;4992427;28;20424;-68
2023/07/13 07:56:13;;;;;;;3.43;3.23;;;37.20;1.00;;;;;;4994459;28;20181;-69
2023/07/13 07:58:39;;;;;;;4.10;3.70;;;36.20;1.00;;;;;;4976273;28;20728;-69
2023/07/13 08:01:05;;;;;;;4.00;3.60;;;34.50;1.00;;;;;;4974295;28;20316;-68
2023/07/13 08:03:31;;;;;;;3.20;3.00;;;33.20;1.00;;;;;;4973902;28;20276;-69
2023/07/13 08:05:57;;;;;;;3.10;2.90;;;32.20;1.00;;;;;;4974247;28;20781;-68
2023/07/13 08:08:23;;;;;;;3.80;3.00;;;31.80;1.00;;;;;;4974134;28;20806;-68
2023/07/13 08:10:49;;;;;;;3.87;3.53;;;31.10;1.00;;;;;;4974558;28;20193;-68
2023/07/13 08:13:14;;;;;;;3.40;3.10;;;31.20;1.00;;;;;;4972645;28;20464;-69
2023/07/13 08:15:40;;;;;;;3.20;3.00;;;31.90;1.00;;;;;;4973871;28;20178;-70
2023/07/13 08:18:06;;;;;;;3.30;3.00;;;32.90;1.00;;;;;;4972628;28;20181;-68
2023/07/13 08:20:31;;;;;;;3.17;2.97;;;34.50;1.00;;;;;;4977667;28;20196;-69
2023/07/13 08:22:57;;;;;;;3.50;3.30;;;35.80;1.00;;;;;;4989343;28;20216;-69
2023/07/13 08:25:22;;;;;;;7.10;4.57;;;36.60;1.00;;;;;;4988228;28;20193;-69
2023/07/13 08:27:48;;;;;;;4.57;4.17;;;36.30;1.00;;;;;;4988036;28;20219;-69
2023/07/13 08:30:14;;;;;;;3.47;3.27;;;35.80;1.00;;;;;;4989891;28;20481;-69
2023/07/13 08:32:39;;;;;;;3.43;3.10;;;35.90;1.00;;;;;;4988598;28;20205;-69
2023/07/13 08:35:06;;;;;;;4.30;3.90;;;37.40;1.00;;;;;;4989195;28;20270;-71
2023/07/13 08:37:31;;;;;;;3.60;3.30;;;38.00;1.00;;;;;;4989834;28;20185;-69
2023/07/13 08:39:57;;;;;;;4.07;3.60;;;39.00;1.00;;;;;;4989478;28;20428;-69
2023/07/13 08:42:33;;;;;;;3.50;3.20;;;39.50;1.00;;;;;;4989626;28;20303;-69
2023/07/13 08:45:31;;;;;;;6.93;3.73;;;39.40;1.00;;;;;;4989849;28;20180;-72
2023/07/13 08:48:17;;;;;;;3.63;3.30;;;38.80;1.00;;;;;;4988475;28;20486;-70
2023/07/13 08:50:51;;;;;;;3.80;3.50;;;39.50;1.00;;;;;;4989590;28;20925;-70
2023/07/13 08:53:18;;;;;;;3.93;3.70;;;40.10;1.00;;;;;;4988136;28;21015;-69
2023/07/13 08:55:44;;;;;;;4.40;4.07;;;39.00;1.00;;;;;;4985495;28;20428;-69
2023/07/13 08:58:13;;;;;;;4.10;3.80;;;38.10;1.00;;;;;;4988835;28;20428;-69
2023/07/13 09:00:48;;;;;;;3.77;3.30;;;37.10;1.00;;;;;;4988751;28;20957;-71
2023/07/13 09:03:23;;;;;;;4.07;3.67;;;37.90;1.00;;;;;;4987977;28;20566;-71
2023/07/13 09:05:59;;;;;;;4.03;3.73;;;36.60;1.00;;;;;;4989157;28;20921;-70
2023/07/13 09:08:36;;;;;;;4.33;3.93;;;37.60;1.00;;;;;;4989044;28;20492;-75
2023/07/13 09:11:23;;;;;;;10.63;3.30;;;39.90;1.00;;;;;;4989099;28;20424;-71
2023/07/13 09:14:11;;;;;;;4.93;3.40;;;40.20;1.00;;;;;;4988314;28;20768;-71
2023/07/13 09:16:38;;;;;;;4.47;3.47;;;39.10;1.00;;;;;;4988177;28;20408;-70
2023/07/13 09:19:10;;;;;;;3.50;3.20;;;37.70;1.00;;;;;;4986698;28;20443;-71
2023/07/13 09:21:43;;;;;;;3.93;3.67;;;34.60;1.00;;;;;;4988039;28;20468;-72
2023/07/13 09:24:40;;;;;;;3.70;3.40;;;32.10;1.00;;;;;;4987176;28;20847;-71
2023/07/13 09:27:30;;;;;;;3.63;3.33;;;30.40;1.00;;;;;;4988629;28;20860;-72
2023/07/13 09:30:06;;;;;;;10.20;3.70;;;28.80;1.00;;;;;;4988085;28;20416;-70
2023/07/13 09:32:32;;;;;;;4.03;3.13;;;27.90;1.00;;;;;;4988104;28;20523;-72
2023/07/13 09:35:00;;;;;;;3.90;3.60;;;27.30;1.00;;;;;;4988920;28;20506;-70
2023/07/13 09:37:30;;;;;;;3.67;3.47;;;27.00;1.00;;;;;;4988354;28;20467;-69
2023/07/13 09:39:58;;;;;;;3.90;3.60;;;26.90;1.00;;;;;;4988176;28;20478;-70
2023/07/13 09:42:25;;;;;;;4.00;3.20;;;26.70;1.00;;;;;;4990841;28;20873;-70
2023/07/13 09:44:56;;;;;;;6.70;3.10;;;26.60;1.00;;;;;;4981088;28;20416;-71
2023/07/13 09:47:27;;;;;;;3.73;3.53;;;26.60;1.00;;;;;;4992622;28;20461;-72
2023/07/13 09:49:59;;;;;;;4.77;4.37;;;26.40;1.00;;;;;;4992988;28;20427;-71
2023/07/13 09:52:27;;;;;;;3.73;3.43;;;26.60;1.00;;;;;;4993071;28;20497;-72
2023/07/13 09:54:58;;;;;;;3.80;3.50;;;26.60;1.00;;;;;;4993625;28;20772;-72
2023/07/13 09:57:26;;;;;;;4.40;4.03;;;26.20;1.00;;;;;;4993194;28;20554;-71
2023/07/13 09:59:56;;;;;;;3.90;3.60;;;26.50;1.00;;;;;;4991956;28;20964;-72
2023/07/13 10:02:33;;;;;;;4.13;3.83;;;26.80;1.00;;;;;;4993269;28;20455;-71
2023/07/13 10:05:04;;;;;;;4.17;3.87;;;27.00;1.00;;;;;;4992638;28;20435;-71
2023/07/13 10:07:32;;;;;;;4.40;3.97;;;27.00;1.00;;;;;;4990964;28;20434;-70
2023/07/13 10:10:00;;;;;;;3.87;3.67;;;27.00;1.00;;;;;;4992941;28;20419;-70
2023/07/13 10:12:27;;;;;;;4.17;3.80;;;26.60;1.00;;;;;;4992550;28;20517;-71
2023/07/13 10:14:56;;;;;;;4.53;3.40;;;26.60;1.00;;;;;;4992442;28;20423;-70
2023/07/13 10:17:30;;;;;;;3.70;3.43;;;26.60;1.00;;;;;;4992286;28;20428;-70
2023/07/13 10:20:04;;;;;;;3.57;3.37;;;26.70;1.00;;;;;;4992220;28;20442;-71
2023/07/13 10:22:57;;;;;;;3.60;3.40;;;26.90;1.00;;;;;;4991682;28;20486;-70
2023/07/13 10:25:26;;;;;;;3.80;3.50;;;26.60;1.00;;;;;;4991694;28;20419;-70
2023/07/13 10:28:11;;;;;;;3.60;3.30;;;26.40;1.00;;;;;;4991739;28;20412;-70
2023/07/13 10:30:41;;;;;;;3.70;3.50;;;26.20;1.00;;;;;;4994998;28;20904;-71
2023/07/13 10:33:11;;;;;;;3.77;3.57;;;25.60;1.00;;;;;;4995333;28;20437;-70
2023/07/13 10:35:40;;;;;;;3.87;3.47;;;25.60;1.00;;;;;;4995593;28;20426;-70
2023/07/13 10:38:11;;;;;;;3.50;3.20;;;25.90;1.00;;;;;;4995519;28;20415;-68
2023/07/13 10:40:39;;;;;;;3.67;3.37;;;26.10;1.00;;;;;;4995388;28;20427;-68
2023/07/13 10:43:14;;;;;;;3.67;3.47;;;26.20;1.00;;;;;;4994795;28;20471;-67
2023/07/13 10:45:40;;;;;;;5.33;3.40;;;26.80;1.00;;;;;;4995065;28;20415;-68
2023/07/13 10:48:12;;;;;;;5.73;3.53;;;26.80;1.00;;;;;;4991844;28;20443;-69
2023/07/13 10:50:40;;;;;;;4.47;3.70;;;26.90;1.00;;;;;;4980485;28;20504;-72
2023/07/13 10:53:21;;;;;;;4.17;3.50;;;26.90;1.00;;;;;;4975784;28;20432;-70
2023/07/13 10:55:53;;;;;;;5.90;3.47;;;27.00;1.00;;;;;;4990037;28;20984;-70
2023/07/13 10:58:23;;;;;;;4.37;4.03;;;27.20;1.00;;;;;;4993625;28;20427;-69
2023/07/13 11:01:03;;;;;;;5.80;3.87;;;27.00;1.00;;;;;;4994530;28;20803;-69
2023/07/13 11:03:32;;;;;;;3.60;3.30;;;26.90;1.00;;;;;;4993749;28;20459;-70
2023/07/13 11:06:15;;;;;;;6.23;3.37;;;27.00;1.00;;;;;;4995321;28;20423;-70
2023/07/13 11:08:47;;;;;;;3.43;3.00;;;27.10;1.00;;;;;;4995413;28;20407;-70
2023/07/13 11:11:38;;;;;;;3.90;3.60;;;27.30;1.00;;;;;;4994668;28;20415;-69
2023/07/13 11:14:25;;;;;;;3.70;3.40;;;27.30;1.00;;;;;;4992038;28;20455;-69
2023/07/13 11:16:51;;;;;;;3.40;3.10;;;27.20;1.00;;;;;;4994567;28;20442;-69
2023/07/13 11:19:16;;;;;;;3.83;3.40;;;27.30;1.00;;;;;;4993930;28;20415;-69
2023/07/13 11:22:00;;;;;;;4.70;4.20;;;27.40;1.00;;;;;;4994776;28;20279;-69
2023/07/13 11:24:29;;;;;;;4.57;4.17;;;27.30;1.00;;;;;;4994672;28;20172;-69
2023/07/13 11:26:56;;;;;;;4.33;3.90;;;27.50;1.00;;;;;;4994821;28;20757;-69
2023/07/13 11:29:32;;;;;;;4.37;4.07;;;27.50;1.00;;;;;;4994356;28;20474;-69
2023/07/13 11:32:01;;;;;;;5.67;3.60;;;27.50;1.00;;;;;;4994295;28;20807;-69
2023/07/13 11:34:36;;;;;;;3.70;3.40;;;27.80;1.00;;;;;;4994597;28;20443;-69
2023/07/13 11:37:02;;;;;;;3.57;3.30;;;27.40;1.00;;;;;;4993302;28;20474;-69
2023/07/13 11:39:36;;;;;;;4.60;3.60;;;27.30;1.00;;;;;;4993271;28;20419;-69
2023/07/13 11:42:17;;;;;;;3.83;3.23;;;27.10;1.00;;;;;;4994056;28;20521;-69
2023/07/13 11:44:48;;;;;;;6.50;4.10;;;27.00;1.00;;;;;;4992779;28;21089;-69
2023/07/13 11:47:22;;;;;;;3.67;3.40;;;27.10;1.00;;;;;;4994337;28;20603;-70
2023/07/13 11:49:56;;;;;;;3.80;3.50;;;27.40;1.00;;;;;;4994407;28;21000;-69
2023/07/13 11:52:34;;;;;;;3.90;3.50;;;27.60;1.00;;;;;;4993975;28;20435;-69
2023/07/13 11:55:01;;;;;;;3.63;3.43;;;27.90;1.00;;;;;;4994116;28;20567;-70
2023/07/13 11:57:27;;;;;;;4.10;3.70;;;27.90;1.00;;;;;;4994385;28;20416;-69
2023/07/13 11:59:54;;;;;;;4.40;3.73;;;27.60;1.00;;;;;;4993824;28;20442;-69
2023/07/13 12:02:32;;;;;;;5.30;3.77;;;27.90;1.00;;;;;;4992357;28;20255;-69
2023/07/13 12:05:00;;;;;;;3.63;3.33;;;28.60;1.00;;;;;;4993992;28;20871;-68
2023/07/13 12:07:30;;;;;;;4.00;3.70;;;28.70;1.00;;;;;;4993880;28;20820;-70
2023/07/13 12:10:23;;;;;;;3.87;3.40;;;28.40;1.00;;;;;;4994217;28;20424;-70
2023/07/13 12:12:54;;;;;;;3.67;3.37;;;28.60;1.00;;;;;;4981820;28;20470;-69
2023/07/13 12:15:22;;;;;;;3.63;3.33;;;28.70;1.00;;;;;;4992838;28;20455;-69
2023/07/13 12:17:48;;;;;;;3.63;3.23;;;28.80;1.00;;;;;;4994017;28;20855;-70
2023/07/13 12:20:27;;;;;;;4.07;3.67;;;28.90;1.00;;;;;;4994208;28;20426;-70
2023/07/13 12:22:53;;;;;;;3.73;3.43;;;29.10;1.00;;;;;;4993740;28;20498;-76
2023/07/13 12:25:20;;;;;;;3.90;3.60;;;29.20;1.00;;;;;;4992202;28;20424;-72
2023/07/13 12:27:50;;;;;;;3.87;3.50;;;28.80;1.00;;;;;;4993433;28;20428;-72
2023/07/13 12:30:30;;;;;;;5.67;3.80;;;29.00;1.00;;;;;;4993504;28;20453;-70
2023/07/13 12:33:08;;;;;;;3.70;3.40;;;29.20;1.00;;;;;;4993480;28;20783;-73
2023/07/13 12:35:41;;;;;;;4.17;3.77;;;28.80;1.00;;;;;;4991926;28;20813;-73
2023/07/13 12:38:10;;;;;;;4.10;3.70;;;28.30;1.00;;;;;;4993168;28;20478;-73
2023/07/13 12:40:37;;;;;;;4.03;3.43;;;27.70;1.00;;;;;;4992834;28;20415;-73
2023/07/13 12:43:04;;;;;;;3.93;3.73;;;27.30;1.00;;;;;;4992689;28;20467;-73
2023/07/13 12:45:30;;;;;;;4.20;3.80;;;27.30;1.00;;;;;;4988903;28;20420;-74
2023/07/13 12:48:15;;;;;;;3.90;3.70;;;27.50;1.00;;;;;;4974328;28;20412;-73
2023/07/13 12:50:46;;;;;;;5.23;3.73;;;27.50;1.00;;;;;;4974144;28;20758;-73
2023/07/13 12:53:19;;;;;;;4.83;3.73;;;27.90;1.00;;;;;;4973290;28;20992;-73
2023/07/13 12:55:53;;;;;;;3.93;3.63;;;27.80;1.00;;;;;;4984819;28;20538;-73
2023/07/13 12:58:28;;;;;;;4.13;3.73;;;28.00;1.00;;;;;;4991801;28;20490;-73
2023/07/13 13:00:59;;;;;;;5.20;3.60;;;28.10;1.00;;;;;;4993163;28;20411;-73